createdAt,value
2018-12-22T00:01:45.866Z,100349.16
2018-12-22T00:06:40.557Z,100347.47
2018-12-22T00:11:35.376Z,100346.50
2018-12-22T00:16:30.088Z,100363.16
2018-12-22T00:21:24.772Z,100355.47
2018-12-22T00:26:20.205Z,100353.47
2018-12-22T00:31:14.889Z,100352.50
2018-12-22T00:36:09.594Z,100350.61
2018-12-22T00:41:04.268Z,100346.16
2018-12-22T00:45:58.950Z,100341.69
2018-12-22T00:50:53.665Z,100346.63
2018-12-22T00:55:48.357Z,100348.81
2018-12-22T01:00:43.008Z,100349.85
2018-12-22T01:05:37.702Z,100350.81
2018-12-22T01:10:32.416Z,100352.14
2018-12-22T01:15:27.110Z,100350.45
2018-12-22T01:20:21.803Z,100354.80
2018-12-22T01:25:16.500Z,100350.92
2018-12-22T01:30:11.168Z,100347.91
2018-12-22T01:35:07.565Z,100354.90
2018-12-22T01:40:02.443Z,100351.03
2018-12-22T01:44:57.145Z,100339.56
2018-12-22T01:49:51.830Z,100315.06
2018-12-22T01:54:46.575Z,100327.62
2018-12-22T01:59:41.239Z,100330.03
2018-12-22T02:04:35.944Z,100342.00
2018-12-22T02:09:30.672Z,100338.91
2018-12-22T02:14:25.370Z,100336.72
2018-12-22T02:19:20.055Z,100334.38
2018-12-22T02:24:14.784Z,100327.64
2018-12-22T02:29:09.457Z,100309.46
2018-12-22T02:34:04.119Z,100304.45
2018-12-22T02:38:58.807Z,100297.83
2018-12-22T02:43:53.540Z,100298.55
2018-12-22T02:48:48.235Z,100299.30
2018-12-22T02:53:42.950Z,100292.11
2018-12-22T02:58:37.629Z,100288.50
2018-12-22T03:03:32.336Z,100278.36
2018-12-22T03:08:27.085Z,100284.16
2018-12-22T03:13:21.786Z,100264.64
2018-12-22T03:18:16.489Z,100272.95
2018-12-22T03:23:11.179Z,100264.90
2018-12-22T03:28:05.898Z,100259.50
2018-12-22T03:33:00.651Z,100254.59
2018-12-22T03:37:55.637Z,100244.81
2018-12-22T03:42:50.367Z,100241.80
2018-12-22T03:47:45.084Z,100231.20
2018-12-22T03:52:39.724Z,100231.67
2018-12-22T03:57:34.425Z,100230.95
2018-12-22T04:02:29.114Z,100242.48
2018-12-22T04:07:23.819Z,100241.69
2018-12-22T04:12:18.525Z,100242.22
2018-12-22T04:17:13.242Z,100247.78
2018-12-22T04:22:07.907Z,100252.19
2018-12-22T04:27:02.568Z,100256.89
2018-12-22T04:31:57.292Z,100251.45
2018-12-22T04:36:52.002Z,100256.14
2018-12-22T04:41:46.686Z,100241.33
2018-12-22T04:46:41.370Z,100244.02
2018-12-22T04:51:36.075Z,100260.92
2018-12-22T04:56:30.765Z,100251.39
2018-12-22T05:01:25.489Z,100258.47
2018-12-22T05:06:20.196Z,100264.27
2018-12-22T05:11:14.901Z,100275.88
2018-12-22T05:16:09.627Z,100265.31
2018-12-22T05:21:04.344Z,100279.06
2018-12-22T05:25:59.048Z,100265.94
2018-12-22T05:30:53.721Z,100268.58
2018-12-22T05:35:48.520Z,100272.48
2018-12-22T05:40:43.207Z,100287.58
2018-12-22T05:45:37.907Z,100284.30
2018-12-22T05:50:33.579Z,100293.92
2018-12-22T05:55:28.263Z,100277.86
2018-12-22T06:00:22.947Z,100301.94
2018-12-22T06:05:17.717Z,100309.50
2018-12-22T06:10:12.398Z,100317.81
2018-12-22T06:15:07.633Z,100333.13
2018-12-22T06:20:02.283Z,100335.58
2018-12-22T06:24:56.970Z,100363.98
2018-12-22T06:29:51.728Z,100371.38
2018-12-22T06:34:46.422Z,100376.92
2018-12-22T06:39:41.152Z,100387.41
2018-12-22T06:44:35.831Z,100383.73
2018-12-22T06:49:30.556Z,100414.94
2018-12-22T06:54:25.444Z,100422.69
2018-12-22T06:59:20.160Z,100445.92
2018-12-22T07:04:14.852Z,100450.08
2018-12-22T07:09:09.800Z,100467.02
2018-12-22T07:14:04.481Z,100476.45
2018-12-22T07:18:59.155Z,100489.41
2018-12-22T07:23:53.900Z,100496.20
2018-12-22T07:28:48.607Z,100515.00
2018-12-22T07:33:43.320Z,100519.09
2018-12-22T07:38:38.037Z,100529.00
2018-12-22T07:43:32.745Z,100538.26
2018-12-22T07:48:27.429Z,100554.53
2018-12-22T07:53:22.122Z,100572.49
2018-12-22T07:58:16.917Z,100588.27
2018-12-22T08:03:13.793Z,100605.38
2018-12-22T08:08:08.357Z,100615.95
2018-12-22T08:13:03.383Z,100622.75
2018-12-22T08:17:58.242Z,100640.50
2018-12-22T08:22:52.919Z,100650.08
2018-12-22T08:27:48.696Z,100677.94
2018-12-22T08:32:43.474Z,100683.89
2018-12-22T08:37:38.181Z,100691.73
2018-12-22T08:42:32.860Z,100716.04
2018-12-22T08:47:27.545Z,100730.64
2018-12-22T09:08:29.061Z,100785.59
2018-12-22T09:13:23.868Z,100792.41
2018-12-22T09:23:40.953Z,100819.03
2018-12-22T09:28:35.760Z,100817.02
2018-12-22T09:33:30.648Z,100829.31
2018-12-22T09:43:47.543Z,100853.06
2018-12-22T09:48:42.420Z,100851.66
2018-12-22T09:53:37.293Z,100860.52
2018-12-22T09:58:32.306Z,100853.94
2018-12-22T10:03:27.143Z,100852.01
2018-12-22T10:08:21.998Z,100873.63
2018-12-22T10:13:16.838Z,100872.98
2018-12-22T10:18:11.773Z,100875.73
2018-12-22T10:23:06.506Z,100887.19
2018-12-22T10:28:01.170Z,100883.97
2018-12-22T10:32:55.897Z,100890.91
2018-12-22T10:37:50.783Z,100893.47
2018-12-22T10:42:45.482Z,100909.37
2018-12-22T10:47:40.164Z,100908.16
2018-12-22T10:52:34.938Z,100901.68
2018-12-22T10:57:29.706Z,100902.92
2018-12-22T11:02:24.375Z,100904.80
2018-12-22T11:07:19.096Z,100909.43
2018-12-22T11:12:13.768Z,100920.63
2018-12-22T11:17:08.569Z,100918.18
2018-12-22T11:22:03.301Z,100929.56
2018-12-22T11:26:57.979Z,100929.30
2018-12-22T11:31:52.669Z,100925.86
2018-12-22T11:36:47.339Z,100931.36
2018-12-22T11:41:42.042Z,100945.20
2018-12-22T11:46:38.457Z,100950.11
2018-12-22T11:51:33.152Z,100952.19
2018-12-22T11:56:27.844Z,100963.56
2018-12-22T12:01:22.537Z,100956.16
2018-12-22T12:06:17.254Z,100963.38
2018-12-22T12:11:11.959Z,100972.39
2018-12-22T12:16:30.430Z,100975.31
2018-12-22T12:21:25.297Z,100978.09
2018-12-22T12:26:20.072Z,100985.86
2018-12-22T12:31:14.771Z,100989.77
2018-12-22T12:36:09.427Z,100986.92
2018-12-22T12:41:04.141Z,100984.27
2018-12-22T12:45:59.834Z,100992.54
2018-12-22T12:50:54.614Z,100996.02
2018-12-22T12:55:49.302Z,101005.31
2018-12-22T13:00:44.128Z,101009.52
2018-12-22T13:05:46.339Z,101014.62
2018-12-22T13:10:45.492Z,101025.55
2018-12-22T13:15:43.168Z,101029.42
2018-12-22T13:20:41.596Z,101033.70
2018-12-22T13:30:50.193Z,101049.06
2018-12-22T13:35:47.504Z,101046.31
2018-12-22T13:40:47.012Z,101055.77
2018-12-22T13:45:51.557Z,101056.25
2018-12-22T13:50:53.524Z,101071.50
2018-12-22T13:55:48.459Z,101077.43
2018-12-22T14:00:47.063Z,101073.63
2018-12-22T14:05:41.767Z,101074.95
2018-12-22T14:10:36.473Z,101078.48
2018-12-22T14:15:31.655Z,101071.66
2018-12-22T14:20:27.434Z,101061.41
2018-12-22T14:25:28.291Z,101081.19
2018-12-22T14:30:23.001Z,101099.94
2018-12-22T14:35:41.783Z,101113.84
2018-12-22T14:40:36.626Z,101124.66
2018-12-22T14:45:31.383Z,101132.94
2018-12-22T14:50:26.113Z,101145.84
2018-12-22T14:55:20.875Z,101151.68
2018-12-22T15:00:16.339Z,101162.66
2018-12-22T15:05:11.707Z,101169.91
2018-12-22T15:10:07.103Z,101170.41
2018-12-22T15:15:02.008Z,101174.73
2018-12-22T15:19:56.768Z,101181.05
2018-12-22T15:24:51.703Z,101191.02
2018-12-22T15:29:46.368Z,101203.94
2018-12-22T15:34:41.114Z,101208.38
2018-12-22T15:39:36.013Z,101204.38
2018-12-22T15:44:30.729Z,101218.11
2018-12-22T15:49:25.998Z,101212.17
2018-12-22T15:54:20.765Z,101213.67
2018-12-22T15:59:15.426Z,101231.45
2018-12-22T16:04:10.521Z,101246.42
2018-12-22T16:09:07.414Z,101249.95
2018-12-22T16:14:02.108Z,101244.39
2018-12-22T16:18:56.776Z,101250.37
2018-12-22T16:23:51.469Z,101252.02
2018-12-22T16:28:53.080Z,101251.11
2018-12-22T16:33:47.750Z,101251.53
2018-12-22T16:38:42.618Z,101252.46
2018-12-22T16:43:37.511Z,101268.71
2018-12-22T16:48:32.441Z,101269.69
2018-12-22T16:53:27.332Z,101273.91
2018-12-22T16:58:30.398Z,101278.08
2018-12-22T17:03:25.132Z,101283.48
2018-12-22T17:08:19.954Z,101295.88
2018-12-22T17:13:18.561Z,101298.14
2018-12-22T17:18:13.361Z,101299.78
2018-12-22T17:24:37.541Z,101304.61
2018-12-22T17:29:32.295Z,101312.41
2018-12-22T17:34:26.959Z,101329.85
2018-12-22T17:39:21.752Z,101333.00
2018-12-22T17:44:16.475Z,101350.20
2018-12-22T17:49:11.375Z,101360.50
2018-12-22T17:54:06.079Z,101362.33
2018-12-22T17:59:00.748Z,101378.09
2018-12-22T18:03:55.874Z,101379.08
2018-12-22T18:08:50.641Z,101386.88
2018-12-22T18:13:45.517Z,101391.28
2018-12-22T18:18:40.582Z,101398.28
2018-12-22T18:23:35.614Z,101403.37
2018-12-22T18:28:30.899Z,101405.54
2018-12-22T18:33:25.655Z,101412.72
2018-12-22T18:38:20.333Z,101429.07
2018-12-22T18:43:16.251Z,101440.52
2018-12-22T18:48:11.803Z,101439.08
2018-12-22T18:53:06.749Z,101429.48
2018-12-22T18:58:04.009Z,101438.33
2018-12-22T19:02:58.676Z,101433.68
2018-12-22T19:07:58.412Z,101440.58
2018-12-22T19:12:53.092Z,101449.23
2018-12-22T19:17:47.829Z,101456.12
2018-12-22T19:22:42.822Z,101463.40
2018-12-22T19:27:37.562Z,101470.22
2018-12-22T19:32:32.876Z,101473.47
2018-12-22T19:37:27.525Z,101475.46
2018-12-22T19:42:22.278Z,101480.91
2018-12-22T19:47:16.978Z,101484.02
2018-12-22T19:52:11.665Z,101472.83
2018-12-22T19:57:06.333Z,101475.57
2018-12-22T20:02:01.091Z,101463.89
2018-12-22T20:06:55.782Z,101481.01
2018-12-22T20:11:50.903Z,101487.48
2018-12-22T20:16:45.625Z,101491.44
2018-12-22T20:21:40.298Z,101504.63
2018-12-22T20:26:34.989Z,101506.51
2018-12-22T20:31:29.781Z,101505.01
2018-12-22T20:36:24.631Z,101508.37
2018-12-22T20:41:19.324Z,101516.48
2018-12-22T20:46:14.017Z,101508.42
2018-12-22T20:51:08.677Z,101499.73
2018-12-22T20:56:03.469Z,101507.53
2018-12-22T21:00:58.212Z,101508.98
2018-12-22T21:05:59.534Z,101516.97
2018-12-22T21:10:54.225Z,101528.72
2018-12-22T21:15:48.957Z,101535.06
2018-12-22T21:20:43.657Z,101530.78
2018-12-22T21:25:38.331Z,101532.64
2018-12-22T21:30:33.001Z,101535.55
2018-12-22T21:35:27.725Z,101543.91
2018-12-22T21:40:22.457Z,101546.70
2018-12-22T21:45:17.162Z,101546.61
2018-12-22T21:50:12.707Z,101561.92
2018-12-22T21:55:08.158Z,101569.33
2018-12-22T22:00:03.392Z,101567.68
2018-12-22T22:04:59.521Z,101570.82
2018-12-22T22:09:54.980Z,101582.75
2018-12-22T22:14:49.998Z,101590.05
2018-12-22T22:19:46.171Z,101590.59
2018-12-22T22:24:40.907Z,101603.05
2018-12-22T22:29:36.064Z,101604.58
2018-12-22T22:34:31.425Z,101614.06
2018-12-22T22:39:27.611Z,101631.88
2018-12-22T22:44:23.780Z,101637.48
2018-12-22T22:49:18.972Z,101648.44
2018-12-22T22:54:14.030Z,101649.20
2018-12-22T22:59:09.969Z,101639.78
2018-12-22T23:04:05.786Z,101638.13
2018-12-22T23:09:01.812Z,101612.97
2018-12-22T23:13:57.320Z,101628.41
2018-12-22T23:18:52.067Z,101633.58
2018-12-22T23:23:47.348Z,101619.77
2018-12-22T23:28:43.749Z,101631.05
2018-12-22T23:33:38.873Z,101634.20
2018-12-22T23:38:34.449Z,101633.02
2018-12-22T23:43:31.335Z,101625.74
2018-12-22T23:48:26.166Z,101631.13
2018-12-22T23:53:21.342Z,101645.98
2018-12-22T23:58:17.580Z,101646.41
